createdAt,value
2023-02-28T00:01:58.169Z,2.60
2023-02-28T00:04:27.912Z,3.17
2023-02-28T00:06:56.251Z,2.80
2023-02-28T00:09:24.681Z,3.30
2023-02-28T00:11:53.046Z,2.80
2023-02-28T00:14:21.403Z,3.00
2023-02-28T00:16:49.683Z,3.03
2023-02-28T00:19:19.140Z,3.03
2023-02-28T00:21:48.851Z,2.97
2023-02-28T00:24:17.209Z,2.80
2023-02-28T00:26:45.530Z,2.83
2023-02-28T00:29:13.911Z,2.90
2023-02-28T00:31:42.413Z,2.60
2023-02-28T00:34:10.773Z,3.20
2023-02-28T00:36:39.441Z,2.90
2023-02-28T00:39:09.219Z,2.90
2023-02-28T00:41:40.676Z,3.03
2023-02-28T00:44:09.674Z,2.77
2023-02-28T00:46:38.039Z,3.10
2023-02-28T00:49:06.650Z,3.00
2023-02-28T00:51:35.635Z,3.00
2023-02-28T00:54:03.983Z,3.23
2023-02-28T00:56:33.680Z,2.93
2023-02-28T00:59:02.010Z,3.27
2023-02-28T01:01:30.676Z,2.63
2023-02-28T01:04:00.665Z,2.47
2023-02-28T01:06:29.263Z,3.20
2023-02-28T01:08:57.581Z,3.13
2023-02-28T01:11:26.181Z,2.93
2023-02-28T01:13:56.510Z,2.77
2023-02-28T01:16:25.109Z,2.97
2023-02-28T01:18:53.734Z,3.50
2023-02-28T01:21:23.652Z,3.10
2023-02-28T01:23:53.490Z,2.90
2023-02-28T01:26:24.550Z,3.07
2023-02-28T01:28:54.880Z,3.23
2023-02-28T01:31:25.292Z,3.23
2023-02-28T01:33:54.021Z,3.03
2023-02-28T01:36:26.158Z,3.13
2023-02-28T01:38:55.041Z,2.80
2023-02-28T01:41:26.972Z,3.30
2023-02-28T01:44:07.141Z,3.20
2023-02-28T01:46:40.541Z,3.40
2023-02-28T01:49:15.301Z,3.43
2023-02-28T01:51:51.551Z,3.57
2023-02-28T01:54:26.482Z,3.07
2023-02-28T01:57:01.231Z,3.33
2023-02-28T01:59:36.904Z,3.07
2023-02-28T02:02:06.942Z,3.00
2023-02-28T02:04:44.087Z,2.90
2023-02-28T02:07:16.145Z,3.50
2023-02-28T02:09:47.312Z,3.20
2023-02-28T02:12:30.482Z,3.33
2023-02-28T02:15:11.000Z,3.67
2023-02-28T02:17:46.845Z,3.47
2023-02-28T02:21:07.582Z,3.17
2023-02-28T02:24:13.803Z,3.77
2023-02-28T02:27:20.132Z,3.20
2023-02-28T02:30:34.895Z,3.10
2023-02-28T02:33:53.903Z,3.50
2023-02-28T02:36:29.654Z,3.23
2023-02-28T02:39:07.674Z,3.43
2023-02-28T02:41:42.799Z,2.80
2023-02-28T02:44:22.496Z,3.43
2023-02-28T02:46:57.569Z,3.40
2023-02-28T02:49:35.294Z,3.50
2023-02-28T02:52:10.794Z,3.73
2023-02-28T02:54:45.853Z,3.37
2023-02-28T02:57:23.329Z,3.47
2023-02-28T02:59:55.879Z,3.23
2023-02-28T03:02:27.029Z,3.27
2023-02-28T03:05:03.233Z,3.33
2023-02-28T03:07:32.891Z,3.80
2023-02-28T03:10:02.266Z,3.33
2023-02-28T03:12:47.530Z,3.50
2023-02-28T03:15:27.022Z,3.73
2023-02-28T03:18:10.588Z,3.13
2023-02-28T03:20:54.936Z,3.57
2023-02-28T03:23:34.358Z,3.50
2023-02-28T03:26:09.904Z,3.87
2023-02-28T03:28:51.413Z,4.10
2023-02-28T03:31:29.027Z,4.13
2023-02-28T03:34:06.449Z,4.43
2023-02-28T03:36:44.801Z,3.50
2023-02-28T03:39:21.429Z,3.60
2023-02-28T03:42:00.041Z,4.07
2023-02-28T03:44:37.436Z,4.30
2023-02-28T03:47:13.085Z,4.07
2023-02-28T03:49:50.712Z,3.67
2023-02-28T03:52:25.009Z,3.60
2023-02-28T03:55:01.704Z,4.10
2023-02-28T03:57:39.686Z,4.00
2023-02-28T04:00:15.445Z,3.53
2023-02-28T04:02:44.390Z,3.80
2023-02-28T04:05:13.026Z,3.90
2023-02-28T04:07:41.376Z,4.00
2023-02-28T04:10:14.179Z,3.33
2023-02-28T04:12:42.509Z,3.67
2023-02-28T04:15:12.396Z,4.30
2023-02-28T04:17:40.914Z,3.53
2023-02-28T04:20:11.549Z,4.30
2023-02-28T04:22:40.196Z,4.43
2023-02-28T04:25:13.110Z,4.20
2023-02-28T04:27:41.411Z,3.90
2023-02-28T04:30:11.831Z,4.83
2023-02-28T04:32:41.039Z,4.63
2023-02-28T04:35:12.346Z,4.03
2023-02-28T04:37:40.852Z,4.43
2023-02-28T04:40:12.880Z,4.17
2023-02-28T04:42:41.152Z,4.37
2023-02-28T04:45:11.988Z,4.53
2023-02-28T04:47:40.593Z,4.33
2023-02-28T04:50:10.755Z,4.57
2023-02-28T04:52:39.133Z,4.33
2023-02-28T04:55:10.456Z,5.00
2023-02-28T04:57:39.171Z,4.70
2023-02-28T05:00:12.553Z,4.60
2023-02-28T05:02:41.290Z,4.53
2023-02-28T05:05:10.030Z,5.20
2023-02-28T05:07:38.416Z,4.77
2023-02-28T05:10:07.859Z,4.53
2023-02-28T05:12:38.826Z,5.37
2023-02-28T05:15:08.781Z,5.27
2023-02-28T05:17:37.170Z,5.37
2023-02-28T05:20:15.203Z,5.17
2023-02-28T05:22:45.568Z,5.20
2023-02-28T05:25:18.945Z,5.57
2023-02-28T05:27:48.696Z,5.20
2023-02-28T05:30:18.106Z,5.83
2023-02-28T05:32:51.690Z,5.33
2023-02-28T05:35:20.065Z,5.63
2023-02-28T05:37:48.710Z,5.67
2023-02-28T05:40:17.175Z,5.47
2023-02-28T05:42:45.520Z,5.33
2023-02-28T05:45:15.924Z,4.97
2023-02-28T05:47:44.240Z,5.63
2023-02-28T05:50:13.249Z,4.53
2023-02-28T05:52:41.607Z,5.50
2023-02-28T05:55:11.227Z,5.30
2023-02-28T05:57:39.579Z,6.07
2023-02-28T06:00:10.571Z,5.67
2023-02-28T06:02:43.178Z,5.70
2023-02-28T06:05:17.066Z,5.13
2023-02-28T06:07:46.420Z,5.70
2023-02-28T06:10:15.594Z,5.63
2023-02-28T06:12:44.267Z,5.03
2023-02-28T06:15:16.915Z,6.30
2023-02-28T06:17:47.649Z,5.93
2023-02-28T06:20:15.930Z,5.83
2023-02-28T06:22:44.456Z,5.93
2023-02-28T06:25:13.573Z,5.93
2023-02-28T06:27:42.203Z,5.33
2023-02-28T06:30:12.273Z,6.23
2023-02-28T06:32:40.852Z,5.67
2023-02-28T06:35:11.112Z,5.97
2023-02-28T06:37:41.826Z,6.37
2023-02-28T06:40:14.052Z,6.00
2023-02-28T06:42:43.215Z,6.27
2023-02-28T06:45:12.879Z,5.83
2023-02-28T06:47:43.314Z,5.80
2023-02-28T06:50:15.112Z,6.10
2023-02-28T06:52:43.448Z,6.33
2023-02-28T06:55:12.417Z,6.53
2023-02-28T06:57:40.767Z,4.47
2023-02-28T07:00:11.834Z,5.73
2023-02-28T07:02:40.575Z,6.23
2023-02-28T07:05:10.237Z,6.50
2023-02-28T07:07:43.623Z,6.67
2023-02-28T07:10:14.550Z,6.07
2023-02-28T07:12:44.483Z,6.30
2023-02-28T07:15:13.304Z,6.43
2023-02-28T07:17:41.696Z,6.40
2023-02-28T07:20:11.783Z,6.30
2023-02-28T07:22:41.422Z,5.17
2023-02-28T07:25:11.156Z,5.93
2023-02-28T07:27:40.297Z,6.20
2023-02-28T07:30:11.847Z,5.90
2023-02-28T07:32:40.634Z,6.80
2023-02-28T07:35:10.373Z,6.63
2023-02-28T07:37:40.012Z,6.33
2023-02-28T07:40:13.751Z,6.13
2023-02-28T07:42:43.430Z,6.33
2023-02-28T07:45:13.384Z,6.53
2023-02-28T07:47:42.009Z,6.03
2023-02-28T07:50:13.854Z,5.63
2023-02-28T07:52:43.968Z,6.13
2023-02-28T07:55:13.190Z,6.37
2023-02-28T07:57:42.225Z,6.03
2023-02-28T08:00:14.741Z,5.67
2023-02-28T08:02:43.552Z,5.73
2023-02-28T08:05:12.193Z,5.40
2023-02-28T08:07:40.515Z,5.97
2023-02-28T08:10:12.097Z,6.20
2023-02-28T08:12:41.111Z,5.60
2023-02-28T08:15:11.310Z,6.20
2023-02-28T08:17:39.970Z,5.60
2023-02-28T08:20:11.351Z,5.37
2023-02-28T08:22:39.823Z,5.23
2023-02-28T08:25:11.447Z,5.40
2023-02-28T08:27:39.792Z,6.10
2023-02-28T08:30:11.702Z,5.30
2023-02-28T08:32:40.902Z,5.60
2023-02-28T08:35:11.456Z,5.97
2023-02-28T08:37:40.084Z,6.17
2023-02-28T08:40:11.962Z,5.80
2023-02-28T08:42:40.560Z,5.23
2023-02-28T08:45:09.948Z,5.37
2023-02-28T08:47:38.240Z,5.80
2023-02-28T08:50:07.938Z,5.70
2023-02-28T08:52:40.098Z,5.67
2023-02-28T08:55:11.298Z,5.60
2023-02-28T08:57:39.652Z,5.90
2023-02-28T09:00:11.267Z,5.63
2023-02-28T09:02:40.827Z,5.87
2023-02-28T09:05:10.927Z,5.70
2023-02-28T09:07:39.336Z,5.57
2023-02-28T09:10:10.557Z,5.43
2023-02-28T09:12:38.896Z,5.30
2023-02-28T09:15:09.480Z,5.53
2023-02-28T09:17:37.830Z,6.47
2023-02-28T09:20:07.737Z,5.17
2023-02-28T09:22:36.397Z,5.83
2023-02-28T09:25:05.216Z,5.40
2023-02-28T09:27:35.077Z,5.43
2023-02-28T09:30:03.832Z,5.77
2023-02-28T09:32:32.213Z,6.23
2023-02-28T09:35:00.571Z,5.87
2023-02-28T09:37:31.901Z,6.60
2023-02-28T09:40:00.470Z,5.57
2023-02-28T09:42:36.459Z,5.90
2023-02-28T09:45:24.930Z,6.50
2023-02-28T09:47:58.844Z,6.07
2023-02-28T09:50:36.286Z,5.60
2023-02-28T09:53:13.236Z,5.97
2023-02-28T09:55:50.547Z,5.93
2023-02-28T09:58:31.011Z,5.80
2023-02-28T10:01:09.033Z,6.27
2023-02-28T10:03:42.329Z,5.83
2023-02-28T10:06:19.050Z,6.07
2023-02-28T10:08:58.375Z,6.40
2023-02-28T10:11:30.125Z,6.70
2023-02-28T10:14:09.049Z,6.77
2023-02-28T10:16:47.453Z,6.63
2023-02-28T10:19:24.188Z,6.70
2023-02-28T10:22:01.281Z,6.90
2023-02-28T10:24:36.895Z,6.67
2023-02-28T10:27:16.408Z,6.90
2023-02-28T10:29:53.023Z,5.87
2023-02-28T10:32:26.495Z,6.10
2023-02-28T10:35:01.629Z,6.70
2023-02-28T10:37:30.727Z,6.67
2023-02-28T10:39:59.405Z,6.53
2023-02-28T10:42:30.171Z,6.43
2023-02-28T10:45:15.703Z,6.50
2023-02-28T10:47:56.574Z,6.27
2023-02-28T10:50:54.494Z,6.43
2023-02-28T10:53:52.559Z,6.60
2023-02-28T10:56:28.221Z,6.23
2023-02-28T10:58:59.929Z,7.00
2023-02-28T11:01:46.446Z,6.43
2023-02-28T11:04:22.856Z,6.50
2023-02-28T11:07:01.070Z,7.13
2023-02-28T11:09:35.844Z,6.50
2023-02-28T11:12:07.910Z,6.87
2023-02-28T11:14:50.260Z,6.60
2023-02-28T11:17:26.094Z,7.03
2023-02-28T11:19:59.255Z,7.00
2023-02-28T11:22:35.096Z,7.10
2023-02-28T11:25:11.577Z,7.10
2023-02-28T11:28:02.082Z,7.20
2023-02-28T11:30:37.940Z,6.97
2023-02-28T11:33:29.222Z,6.67
2023-02-28T11:36:03.295Z,7.27
2023-02-28T11:38:34.629Z,7.43
2023-02-28T11:41:33.796Z,7.50
2023-02-28T11:44:29.955Z,6.80
2023-02-28T11:47:07.093Z,6.93
2023-02-28T11:49:49.915Z,6.83
2023-02-28T11:52:36.778Z,6.83
2023-02-28T11:55:18.194Z,7.43
2023-02-28T11:58:30.687Z,7.30
2023-02-28T12:01:24.633Z,7.47
2023-02-28T12:04:12.230Z,7.37
2023-02-28T12:06:53.187Z,7.57
2023-02-28T12:09:46.454Z,6.97
2023-02-28T12:12:38.026Z,7.00
2023-02-28T12:15:30.291Z,7.63
2023-02-28T12:18:18.606Z,7.57
2023-02-28T12:20:56.365Z,7.40
2023-02-28T12:23:56.484Z,7.37
2023-02-28T12:26:38.859Z,8.10
2023-02-28T12:29:20.512Z,7.30
2023-02-28T12:31:55.031Z,7.73
2023-02-28T12:34:34.173Z,7.50
2023-02-28T12:37:12.366Z,7.10
2023-02-28T12:39:50.865Z,7.23
2023-02-28T12:42:30.462Z,7.50
2023-02-28T12:45:04.453Z,7.67
2023-02-28T12:47:32.945Z,7.43
2023-02-28T12:50:06.981Z,7.50
2023-02-28T12:52:48.671Z,6.80
2023-02-28T12:55:31.751Z,7.53
2023-02-28T12:58:11.065Z,7.43
2023-02-28T13:01:06.589Z,7.93
2023-02-28T13:04:28.717Z,7.53
2023-02-28T13:07:17.736Z,7.57
2023-02-28T13:09:56.538Z,7.80
2023-02-28T13:12:27.914Z,7.93
2023-02-28T13:15:13.519Z,7.50
2023-02-28T13:17:43.332Z,7.93
2023-02-28T13:20:22.114Z,7.83
2023-02-28T13:22:53.680Z,7.40
2023-02-28T13:25:55.838Z,7.20
2023-02-28T13:32:35.194Z,7.17
2023-02-28T13:35:48.034Z,7.20
2023-02-28T13:38:37.297Z,6.83
2023-02-28T13:41:47.853Z,6.80
2023-02-28T13:44:19.990Z,6.80
2023-02-28T13:47:25.511Z,7.57
2023-02-28T13:49:55.835Z,6.70
2023-02-28T13:52:27.429Z,7.03
2023-02-28T13:55:31.008Z,7.20
2023-02-28T13:58:29.715Z,7.37
2023-02-28T14:01:27.692Z,7.73
2023-02-28T14:04:19.192Z,6.90
2023-02-28T14:06:54.386Z,7.37
2023-02-28T14:09:29.197Z,7.80
2023-02-28T14:11:57.811Z,7.10
2023-02-28T14:14:59.407Z,7.67
2023-02-28T14:17:28.578Z,7.30
2023-02-28T14:20:00.168Z,7.30
2023-02-28T14:22:56.643Z,7.33
2023-02-28T14:25:35.884Z,7.70
2023-02-28T14:28:21.626Z,7.13
2023-02-28T14:31:06.595Z,7.50
2023-02-28T14:33:58.643Z,8.37
2023-02-28T14:36:35.165Z,8.33
2023-02-28T14:39:13.203Z,8.13
2023-02-28T14:41:44.245Z,7.57
2023-02-28T14:44:19.264Z,8.27
2023-02-28T14:46:51.461Z,8.10
2023-02-28T14:49:25.756Z,7.80
2023-02-28T14:52:10.612Z,8.10
2023-02-28T14:54:41.416Z,7.93
2023-02-28T14:57:25.799Z,7.77
2023-02-28T15:00:14.253Z,7.87
2023-02-28T15:02:44.308Z,8.30
2023-02-28T15:05:27.449Z,8.13
2023-02-28T15:08:14.032Z,8.13
2023-02-28T15:10:47.782Z,8.30
2023-02-28T15:13:17.706Z,8.37
2023-02-28T15:16:01.914Z,8.20
2023-02-28T15:18:44.065Z,7.57
2023-02-28T15:21:19.161Z,8.20
2023-02-28T15:23:55.744Z,8.47
2023-02-28T15:26:34.476Z,8.30
2023-02-28T15:29:08.914Z,8.10
2023-02-28T15:31:56.530Z,8.40
2023-02-28T15:34:42.932Z,7.47
2023-02-28T15:37:42.408Z,7.90
2023-02-28T15:40:28.203Z,7.80
2023-02-28T15:43:16.422Z,7.17
2023-02-28T15:45:50.908Z,8.30
2023-02-28T15:48:24.209Z,7.90
2023-02-28T15:50:56.058Z,7.93
2023-02-28T15:53:28.232Z,8.47
2023-02-28T15:56:06.936Z,8.10
2023-02-28T15:58:38.594Z,7.50
2023-02-28T16:01:18.437Z,7.60
2023-02-28T16:03:49.956Z,7.73
2023-02-28T16:06:38.411Z,7.80
2023-02-28T16:09:10.603Z,7.70
2023-02-28T16:11:45.220Z,7.53
2023-02-28T16:14:25.368Z,8.40
2023-02-28T16:16:58.107Z,7.40
2023-02-28T16:19:26.735Z,7.70
2023-02-28T16:21:55.126Z,7.57
2023-02-28T16:24:23.507Z,8.37
2023-02-28T16:26:55.741Z,8.20
2023-02-28T16:29:31.893Z,7.33
2023-02-28T16:32:01.277Z,7.50
2023-02-28T16:34:29.885Z,7.00
2023-02-28T16:36:58.239Z,6.93
2023-02-28T16:39:27.125Z,6.87
2023-02-28T16:41:55.572Z,7.33
2023-02-28T16:44:33.131Z,6.47
2023-02-28T16:47:02.818Z,6.40
2023-02-28T16:49:31.375Z,5.93
2023-02-28T16:51:59.927Z,6.20
2023-02-28T16:54:28.221Z,6.63
2023-02-28T16:56:56.496Z,6.07
2023-02-28T16:59:28.174Z,6.50
2023-02-28T17:01:59.758Z,6.47
2023-02-28T17:04:29.220Z,6.70
2023-02-28T17:06:57.577Z,6.80
2023-02-28T17:09:40.108Z,7.07
2023-02-28T17:12:10.448Z,6.90
2023-02-28T17:14:39.371Z,5.97
2023-02-28T17:17:17.181Z,6.70
2023-02-28T17:19:45.452Z,6.90
2023-02-28T17:22:13.785Z,6.73
2023-02-28T17:24:42.195Z,6.40
2023-02-28T17:27:14.869Z,7.00
2023-02-28T17:29:43.408Z,6.17
2023-02-28T17:32:18.253Z,6.27
2023-02-28T17:34:47.704Z,6.47
2023-02-28T17:37:19.102Z,6.57
2023-02-28T17:39:48.111Z,6.27
2023-02-28T17:42:16.403Z,7.10
2023-02-28T17:44:45.002Z,7.10
2023-02-28T17:47:14.898Z,6.23
2023-02-28T17:49:43.332Z,6.77
2023-02-28T17:52:11.636Z,6.70
2023-02-28T17:54:40.309Z,6.73
2023-02-28T17:57:14.576Z,6.60
2023-02-28T17:59:43.183Z,7.00
2023-02-28T18:02:18.552Z,6.43
2023-02-28T18:04:46.945Z,6.93
2023-02-28T18:07:15.243Z,6.50
2023-02-28T18:09:43.928Z,7.53
2023-02-28T18:12:12.353Z,7.00
2023-02-28T18:14:40.980Z,7.70
2023-02-28T18:17:13.012Z,6.97
2023-02-28T18:19:42.765Z,7.03
2023-02-28T18:22:12.512Z,7.63
2023-02-28T18:24:41.033Z,8.00
2023-02-28T18:27:11.150Z,8.30
2023-02-28T18:29:40.877Z,8.10
2023-02-28T18:32:11.045Z,7.70
2023-02-28T18:34:39.719Z,7.80
2023-02-28T18:37:11.645Z,8.67
2023-02-28T18:39:40.568Z,7.83
2023-02-28T18:42:09.028Z,8.03
2023-02-28T18:44:38.916Z,7.87
2023-02-28T18:47:07.367Z,8.10
2023-02-28T18:49:37.965Z,9.27
2023-02-28T18:52:08.024Z,8.60
2023-02-28T18:54:37.333Z,9.03
2023-02-28T18:57:06.022Z,8.70
2023-02-28T18:59:34.677Z,7.77
2023-02-28T19:02:03.027Z,8.70
2023-02-28T19:04:31.908Z,8.67
2023-02-28T19:07:03.372Z,9.37
2023-02-28T19:09:33.079Z,9.03
2023-02-28T19:12:01.724Z,9.10
2023-02-28T19:14:30.190Z,8.97
2023-02-28T19:16:58.484Z,9.90
2023-02-28T19:19:26.817Z,8.97
2023-02-28T19:21:59.144Z,8.10
2023-02-28T19:24:27.445Z,9.00
2023-02-28T19:26:57.196Z,9.73
2023-02-28T19:29:25.567Z,9.80
2023-02-28T19:31:54.054Z,9.37
2023-02-28T19:34:22.357Z,9.37
2023-02-28T19:36:51.046Z,9.63
2023-02-28T19:39:19.947Z,9.43
2023-02-28T19:41:50.940Z,10.00
2023-02-28T19:44:20.764Z,10.00
2023-02-28T19:46:49.276Z,9.63
2023-02-28T19:49:18.568Z,10.10
2023-02-28T19:51:47.187Z,9.80
2023-02-28T19:54:15.556Z,9.93
2023-02-28T19:56:43.838Z,10.30
2023-02-28T19:59:21.147Z,9.87
2023-02-28T20:01:54.625Z,9.67
2023-02-28T20:04:23.378Z,10.27
2023-02-28T20:06:51.807Z,9.37
2023-02-28T20:09:20.988Z,10.30
2023-02-28T20:11:50.627Z,10.00
2023-02-28T20:14:18.917Z,9.87
2023-02-28T20:16:47.335Z,9.43
2023-02-28T20:19:18.576Z,11.10
2023-02-28T20:21:47.496Z,9.70
2023-02-28T20:24:16.354Z,10.07
2023-02-28T20:26:44.641Z,10.00
2023-02-28T20:29:13.748Z,9.70
2023-02-28T20:31:42.252Z,10.20
2023-02-28T20:34:10.666Z,9.83
2023-02-28T20:36:40.425Z,9.33
2023-02-28T20:39:09.175Z,10.30
2023-02-28T20:41:37.569Z,9.63
2023-02-28T20:44:06.585Z,10.13
2023-02-28T20:46:35.647Z,10.43
2023-02-28T20:49:04.239Z,9.93
2023-02-28T20:51:32.529Z,9.60
2023-02-28T20:54:04.526Z,9.00
2023-02-28T20:56:34.644Z,10.37
2023-02-28T20:59:06.696Z,10.70
2023-02-28T21:01:35.183Z,10.43
2023-02-28T21:04:07.235Z,10.23
2023-02-28T21:06:38.794Z,9.73
2023-02-28T21:09:11.331Z,10.00
2023-02-28T21:11:41.228Z,10.90
2023-02-28T21:14:14.907Z,10.63
2023-02-28T21:16:44.478Z,10.20
2023-02-28T21:19:13.394Z,11.43
2023-02-28T21:21:44.929Z,11.07
2023-02-28T21:24:17.791Z,10.83
2023-02-28T21:26:47.526Z,11.00
2023-02-28T21:29:17.191Z,11.03
2023-02-28T21:31:45.600Z,10.87
2023-02-28T21:34:15.027Z,11.23
2023-02-28T21:36:47.329Z,11.97
2023-02-28T21:39:21.907Z,11.27
2023-02-28T21:41:50.890Z,10.67
2023-02-28T21:44:19.556Z,10.40
2023-02-28T21:46:49.109Z,11.90
2023-02-28T21:49:18.550Z,11.60
2023-02-28T21:51:47.057Z,11.53
2023-02-28T21:54:17.473Z,11.10
2023-02-28T21:56:46.066Z,11.87
2023-02-28T21:59:14.338Z,11.37
2023-02-28T22:01:45.712Z,11.20
2023-02-28T22:04:21.141Z,12.40
2023-02-28T22:06:53.098Z,11.83
2023-02-28T22:09:23.585Z,11.67
2023-02-28T22:11:52.352Z,11.87
2023-02-28T22:14:21.446Z,11.83
2023-02-28T22:16:52.912Z,10.93
2023-02-28T22:19:23.490Z,11.57
2023-02-28T22:21:53.829Z,11.43
2023-02-28T22:24:24.923Z,12.13
2023-02-28T22:26:54.103Z,11.97
2023-02-28T22:29:22.729Z,12.63
2023-02-28T22:31:51.844Z,11.90
2023-02-28T22:34:20.903Z,11.60
2023-02-28T22:36:49.323Z,12.67
2023-02-28T22:39:17.819Z,11.93
2023-02-28T22:41:47.511Z,12.27
2023-02-28T22:44:16.438Z,11.73
2023-02-28T22:46:44.863Z,12.37
2023-02-28T22:49:17.079Z,12.37
2023-02-28T22:51:45.689Z,12.60
2023-02-28T22:54:13.971Z,11.43
2023-02-28T22:56:42.258Z,12.13
2023-02-28T22:59:15.540Z,11.77
2023-02-28T23:01:44.996Z,12.20
2023-02-28T23:04:13.797Z,11.93
2023-02-28T23:06:45.252Z,11.50
2023-02-28T23:09:18.190Z,11.87
2023-02-28T23:11:50.258Z,11.90
2023-02-28T23:14:22.237Z,11.67
2023-02-28T23:16:54.289Z,11.47
2023-02-28T23:19:26.482Z,11.00
2023-02-28T23:21:55.082Z,11.53
2023-02-28T23:24:30.079Z,12.07
2023-02-28T23:27:02.454Z,11.20
2023-02-28T23:29:33.330Z,11.10
2023-02-28T23:32:03.929Z,11.60
2023-02-28T23:34:32.511Z,12.60
2023-02-28T23:37:03.004Z,11.40
2023-02-28T23:39:32.480Z,11.47
2023-02-28T23:42:02.045Z,12.13
2023-02-28T23:44:32.296Z,12.27
2023-02-28T23:47:01.105Z,12.07
2023-02-28T23:49:29.429Z,11.33
2023-02-28T23:51:57.742Z,11.90
2023-02-28T23:54:26.058Z,12.43
2023-02-28T23:56:54.602Z,12.67
2023-02-28T23:59:27.107Z,12.83
